Decoded Metar for KRSL (RUSSELL in KS, USA) (IATA:RSL) | Meteo·Mobile Aviation Weather
aviador You're here:

KRSL Decoded Metar

RUSSELL in KS, USA
Report Time2019-01-21 23:53:00
UTC Time2019-01-22 00:47:46
Flight Rules vfr VFR
Wind080° at 07 kt
W.Decomp.*RWY 03: 5.2 kt HW 4.7 kt RCW
RWY 35: 1.0 kt HW 6.9 kt RCW
W.Rank080° ranks 30
Current wind is below 080° avg. (8.0)
Visibility9999 m
Phenomena:N/A
Clouds:N/A
CeilingNone
Temp01°C (ISA -10)
Dew Point01°C (100% RH)
AAT-3.4°C
QNH1000 hPa
Density Alt1,152 ft
Elevation1,860 ft
Report Wrong Elevation
Raw Report
KRSL 212353Z AUTO 08007KT 10SM CLR 01/01 A2954 RMK AO2 SLP022
T00110006 10039 21006 57020 $=

Extra information for KRSL:More info

Metar Taf Metar & Taf Last 4 Metars F.Rules Stats Wind Profile Meteogram Temp Stats Airport Information Weather charts Add Link Nearby VenuesMetar ALERT Operation Metar Decoded Social comments

AIRNAV info for KRSL